PAUNPASK

Guest
Details From PAUN - Unalakleet
To PASK - Selawik
Flight Number -
Tags Generated
Created
Modified
Stats Distance 164 nm / 305 km
Max Altitude 0 ft / 0 m
Waypoints 2
Social Downloads 0
Likes 0
Share VATSIM

Download

Looking for another format? Having issues loading an existing format? Contact us
Advertisement - Login to hide

Notes

Generated

Route

PAUN PASK

ID Type Via Altitude Latitude Longitude Leg Dist Tot Dist Heading (true) Name
O PAUN APT - 0 ft / 0 m 63.88345˚ -160.79903˚ - 0 nm - -
O PASK APT - 0 ft / 0 m 66.60159˚ -159.99658˚ 164 nm 164 nm 7° / 7° -

Altitude Profile

Advertisement - Login to hide

Weather


0- 5 10 15 20 25 30 35+ Temperature / ° C

Clouds and Precipitation
Forecast for 2017-12-12 06:00 UTC. Updated 2 hours ago

Ground ~20,000 ft ~40,000 ft Winds

PAUN

Details ICAO PAUN (UNK)
Name Unalakleet
Region USA (Alaska)
Timezone America/Anchorage (UTC-9.0)
Stats Elevation 68 ft / 21 m (AMSL)
Location 63.886590° -160.796931°
Runways 2
Magnetic Variation 12.179° E

METAR

PAUN 120356Z AUTO 08012KT 9SM -SN OVC032 M02/M03 A2937 RMK AO2 SNE0258B26 SLP951 P0000 T10221033 FZRANO

Decode

TAF

PAUN 112334Z 1200/1224 32006KT P6SM SCT035 BKN050 OVC100 FM120300 08010KT 2SM -SN BR SCT025 BKN035 OVC050 FM120900 09010KT 5SM -SN BR SCT015 BKN025 OVC035 FM121200 09015G25KT 6SM -SN BR BKN025 BKN035 OVC050

Decode

Departure Runways

ID Width Length Bearing (true) Bearing (mag) Surface Threshold Offset Overrun Length
15 151 ft / 46 m 5,990 ft / 1,826 m 164.15° 151.97° Asphalt 0 ft / 0 m 499 ft / 152 m
26 79 ft / 24 m 1,993 ft / 608 m 278.43° 266.25° Asphalt 0 ft / 0 m 0 ft / 0 m
33 151 ft / 46 m 5,990 ft / 1,826 m 344.16° 331.98° Asphalt 0 ft / 0 m 0 ft / 0 m
8 79 ft / 24 m 1,993 ft / 608 m 98.42° 86.24° Asphalt 0 ft / 0 m 0 ft / 0 m

PASK

Details ICAO PASK (WLK)
Name SELAWIK
Region USA (Alaska)
Timezone America/Anchorage (UTC-9.0)
Stats Elevation 13 ft / 4 m (AMSL)
Location 66.600159° -159.985875°
Runways 2
Magnetic Variation 12.748° E

METAR

PASK 120431Z AUTO 06009KT 3SM -SN BR BKN026 OVC034 M06/M07 A2944 RMK AO2 P0000 FZRANO $

Decode

TAF

Not found

Destination Runways

ID Width Length Bearing (true) Bearing (mag) Surface Threshold Offset Overrun Length
03 59 ft / 18 m 2,992 ft / 912 m 53.27° 40.52° Gravel 0 ft / 0 m 0 ft / 0 m
09 59 ft / 18 m 2,650 ft / 808 m 106.30° 93.55° Gravel 0 ft / 0 m 0 ft / 0 m
21 59 ft / 18 m 2,992 ft / 912 m 233.28° 220.53° Gravel 0 ft / 0 m 0 ft / 0 m
27 59 ft / 18 m 2,650 ft / 808 m 286.32° 273.57° Gravel 0 ft / 0 m 0 ft / 0 m